Terminal Aerodrome Forecast
Issued by NWS Mt. Holly, NJ

Home | Current Version | Previous Version | Text Only | Print | Product List | Glossary On
Versions: 1 2 3 4 5 6 7 8 9 10 11 12 13 14 15 16 17 18 19 20
475
FTUS41 KPHI 100522
TAFABE
TAF
KABE 100522Z 1006/1106 27004KT P6SM OVC020
      TEMPO 1006/1009 2SM -SN BR BKN009 OVC020
     FM101100 29008KT P6SM SCT020 BKN060
     FM101400 29012G20KT P6SM BKN060
     FM102300 27007KT P6SM BKN050=

USA.gov is the U.S. government's official web portal to all federal, state and local government web resources and services.